createdAt,value
2023-05-06T00:01:09.871Z,13.77
2023-05-06T00:03:41.411Z,13.72
2023-05-06T00:06:12.143Z,13.77
2023-05-06T00:08:42.298Z,13.84
2023-05-06T00:11:15.504Z,13.82
2023-05-06T00:13:45.620Z,13.82
2023-05-06T00:16:15.615Z,13.79
2023-05-06T00:18:45.460Z,13.83
2023-05-06T00:21:17.200Z,13.95
2023-05-06T00:23:48.409Z,14.02
2023-05-06T00:26:22.254Z,14.04
2023-05-06T00:28:52.371Z,14.01
2023-05-06T00:31:22.763Z,14.07
2023-05-06T00:33:54.058Z,14.13
2023-05-06T00:36:24.196Z,14.11
2023-05-06T00:38:54.151Z,14.08
2023-05-06T00:41:27.085Z,14.00
2023-05-06T00:43:57.761Z,14.01
2023-05-06T00:46:28.207Z,13.90
2023-05-06T00:48:58.775Z,13.92
2023-05-06T00:51:29.847Z,13.89
2023-05-06T00:54:00.231Z,13.98
2023-05-06T00:56:33.522Z,13.97
2023-05-06T00:59:04.588Z,14.00
2023-05-06T01:01:34.789Z,13.92
2023-05-06T01:04:05.253Z,13.88
2023-05-06T01:06:49.434Z,13.86
2023-05-06T01:09:25.665Z,13.74
2023-05-06T01:12:09.769Z,13.89
2023-05-06T01:14:49.649Z,13.93
2023-05-06T01:17:21.893Z,13.91
2023-05-06T01:19:54.337Z,13.95
2023-05-06T01:22:26.441Z,13.93
2023-05-06T01:24:59.174Z,13.94
2023-05-06T01:27:30.457Z,14.04
2023-05-06T01:30:01.803Z,13.99
2023-05-06T01:32:43.787Z,14.04
2023-05-06T01:35:24.221Z,14.23
2023-05-06T01:38:03.957Z,14.21
2023-05-06T01:40:38.571Z,14.19
2023-05-06T01:43:09.565Z,14.07
2023-05-06T01:45:43.714Z,14.01
2023-05-06T01:48:14.874Z,13.91
2023-05-06T01:50:46.826Z,14.09
2023-05-06T01:53:17.886Z,14.16
2023-05-06T01:55:51.575Z,14.10
2023-05-06T01:58:21.702Z,14.06
2023-05-06T02:00:51.503Z,14.01
2023-05-06T02:03:21.483Z,14.03
2023-05-06T02:05:51.996Z,13.95
2023-05-06T02:08:23.788Z,14.13
2023-05-06T02:10:56.650Z,14.14
2023-05-06T02:13:26.803Z,14.11
2023-05-06T02:15:57.458Z,14.25
2023-05-06T02:18:27.936Z,14.19
2023-05-06T02:20:59.254Z,14.19
2023-05-06T02:23:29.652Z,14.05
2023-05-06T02:26:02.254Z,14.29
2023-05-06T02:28:32.419Z,14.12
2023-05-06T02:31:02.329Z,13.95
2023-05-06T02:33:32.330Z,14.08
2023-05-06T02:36:02.918Z,14.19
2023-05-06T02:38:33.064Z,14.23
2023-05-06T02:41:06.461Z,14.05
2023-05-06T02:43:36.842Z,14.10
2023-05-06T02:46:08.780Z,14.08
2023-05-06T02:48:40.490Z,13.72
2023-05-06T02:51:10.990Z,13.89
2023-05-06T02:53:40.817Z,13.64
2023-05-06T02:56:13.753Z,13.70
2023-05-06T02:58:43.697Z,13.58
2023-05-06T03:01:13.769Z,13.67
2023-05-06T03:03:43.855Z,13.59
2023-05-06T03:06:13.975Z,13.57
2023-05-06T03:08:43.909Z,13.66
2023-05-06T03:11:17.308Z,13.70
2023-05-06T03:13:47.304Z,13.46
2023-05-06T03:16:17.746Z,13.45
2023-05-06T03:18:52.261Z,13.58
2023-05-06T03:21:22.750Z,13.56
2023-05-06T03:23:54.408Z,13.49
2023-05-06T03:26:30.517Z,13.41
2023-05-06T03:29:00.991Z,13.43
2023-05-06T03:31:31.127Z,13.29
2023-05-06T03:34:03.445Z,13.33
2023-05-06T03:36:33.695Z,13.31
2023-05-06T03:39:04.115Z,13.25
2023-05-06T03:41:38.878Z,13.31
2023-05-06T03:44:09.745Z,13.34
2023-05-06T03:46:40.838Z,13.38
2023-05-06T03:49:11.453Z,13.21
2023-05-06T03:51:42.261Z,13.33
2023-05-06T03:54:13.143Z,13.31
2023-05-06T03:56:46.133Z,13.38
2023-05-06T03:59:18.363Z,13.40
2023-05-06T04:01:48.719Z,13.35
2023-05-06T04:04:19.485Z,13.45
2023-05-06T04:06:49.632Z,13.48
2023-05-06T04:09:19.684Z,13.48
2023-05-06T04:11:53.901Z,13.50
2023-05-06T04:14:24.396Z,13.31
2023-05-06T04:16:54.564Z,13.52
2023-05-06T04:19:24.860Z,13.58
2023-05-06T04:21:58.781Z,13.43
2023-05-06T04:24:29.695Z,13.51
2023-05-06T04:27:03.119Z,13.59
2023-05-06T04:29:33.518Z,13.49
2023-05-06T04:32:06.578Z,13.49
2023-05-06T04:34:39.086Z,13.48
2023-05-06T04:37:11.373Z,13.42
2023-05-06T04:39:47.765Z,13.48
2023-05-06T04:42:21.542Z,13.50
2023-05-06T04:44:59.762Z,13.46
2023-05-06T04:47:33.928Z,13.33
2023-05-06T04:50:05.110Z,13.23
2023-05-06T04:52:36.486Z,13.37
2023-05-06T04:55:07.732Z,13.35
2023-05-06T04:57:43.676Z,13.30
2023-05-06T05:00:16.742Z,13.28
2023-05-06T05:02:47.126Z,13.33
2023-05-06T05:05:21.738Z,13.08
2023-05-06T05:07:55.509Z,13.11
2023-05-06T05:10:27.112Z,13.13
2023-05-06T05:13:06.695Z,13.35
2023-05-06T05:15:38.556Z,13.35
2023-05-06T05:18:09.558Z,13.30
2023-05-06T05:20:40.024Z,13.43
2023-05-06T05:23:14.251Z,13.45
2023-05-06T05:25:46.693Z,13.48
2023-05-06T05:28:19.334Z,13.31
2023-05-06T05:30:50.358Z,13.47
2023-05-06T05:33:21.700Z,13.45
2023-05-06T05:35:52.081Z,13.60
2023-05-06T05:38:22.444Z,13.68
2023-05-06T05:40:52.735Z,13.72
2023-05-06T05:43:26.419Z,13.82
2023-05-06T05:45:57.790Z,13.83
2023-05-06T05:48:27.742Z,13.78
2023-05-06T05:50:57.673Z,13.89
2023-05-06T05:53:29.913Z,13.81
2023-05-06T05:56:00.411Z,13.93
2023-05-06T05:58:33.363Z,13.99
2023-05-06T06:01:04.330Z,13.74
2023-05-06T06:03:37.086Z,13.88
2023-05-06T06:06:09.552Z,13.68
2023-05-06T06:08:40.200Z,13.61
2023-05-06T06:11:10.739Z,13.72
2023-05-06T06:13:46.310Z,13.39
2023-05-06T06:16:16.465Z,13.43
2023-05-06T06:18:46.509Z,13.62
2023-05-06T06:21:18.527Z,13.74
2023-05-06T06:23:50.380Z,13.59
2023-05-06T06:26:20.394Z,13.73
2023-05-06T06:28:54.821Z,13.53
2023-05-06T06:31:29.917Z,13.78
2023-05-06T06:34:00.598Z,13.98
2023-05-06T06:36:30.925Z,13.83
2023-05-06T06:39:00.875Z,14.03
2023-05-06T06:41:30.759Z,13.95
2023-05-06T06:44:05.454Z,14.03
2023-05-06T06:46:36.974Z,14.05
2023-05-06T06:49:07.900Z,14.34
2023-05-06T06:51:37.751Z,14.18
2023-05-06T06:54:07.840Z,14.25
2023-05-06T06:56:37.744Z,13.97
2023-05-06T06:59:10.883Z,14.24
2023-05-06T07:01:41.073Z,14.33
2023-05-06T07:04:11.523Z,14.35
2023-05-06T07:06:43.538Z,14.13
2023-05-06T07:09:15.485Z,14.05
2023-05-06T07:11:46.176Z,14.17
2023-05-06T07:14:21.526Z,14.07
2023-05-06T07:16:54.021Z,14.08
2023-05-06T07:19:24.451Z,13.75
2023-05-06T07:21:54.742Z,13.82
2023-05-06T07:24:24.807Z,13.94
2023-05-06T07:26:58.123Z,13.85
2023-05-06T07:29:31.011Z,14.01
2023-05-06T07:32:01.252Z,13.98
2023-05-06T07:34:31.689Z,13.90
2023-05-06T07:37:01.752Z,13.98
2023-05-06T07:39:32.074Z,13.84
2023-05-06T07:42:03.805Z,13.86
2023-05-06T07:44:37.235Z,14.17
2023-05-06T07:47:08.153Z,14.16
2023-05-06T07:49:41.279Z,14.27
2023-05-06T07:52:12.121Z,14.64
2023-05-06T07:54:42.127Z,14.65
2023-05-06T07:57:17.928Z,14.15
2023-05-06T07:59:53.767Z,14.60
2023-05-06T08:02:24.015Z,14.84
2023-05-06T08:04:54.197Z,15.11
2023-05-06T08:07:24.169Z,15.47
2023-05-06T08:09:55.482Z,15.80
2023-05-06T08:12:25.579Z,15.91
2023-05-06T08:15:01.683Z,16.14
2023-05-06T08:17:31.928Z,15.92
2023-05-06T08:20:02.273Z,15.88
2023-05-06T08:22:32.181Z,16.17
2023-05-06T08:25:02.402Z,15.75
2023-05-06T08:27:32.128Z,15.61
2023-05-06T08:30:04.866Z,15.99
2023-05-06T08:32:35.262Z,16.00
2023-05-06T08:35:05.696Z,15.80
2023-05-06T08:37:38.474Z,15.70
2023-05-06T08:40:18.620Z,15.60
2023-05-06T08:42:49.105Z,15.72
2023-05-06T08:45:23.029Z,16.87
2023-05-06T08:47:53.004Z,17.58
2023-05-06T08:50:23.610Z,18.68
2023-05-06T08:52:54.027Z,19.34
2023-05-06T08:55:25.620Z,19.13
2023-05-06T08:57:56.488Z,18.41
2023-05-06T09:00:29.570Z,19.13
2023-05-06T09:03:02.016Z,19.19
2023-05-06T09:05:33.089Z,20.51
2023-05-06T09:08:03.504Z,20.02
2023-05-06T09:10:35.984Z,19.37
2023-05-06T09:13:06.311Z,19.21
2023-05-06T09:15:47.714Z,19.73
2023-05-06T09:18:18.143Z,20.77
2023-05-06T09:20:50.513Z,21.85
2023-05-06T09:23:21.471Z,21.46
2023-05-06T09:25:52.273Z,19.47
2023-05-06T09:28:22.474Z,18.64
2023-05-06T09:30:55.341Z,18.04
2023-05-06T09:33:27.922Z,17.82
2023-05-06T09:36:01.058Z,17.61
2023-05-06T09:38:33.430Z,17.17
2023-05-06T09:41:03.609Z,17.77
2023-05-06T09:43:35.066Z,18.06
2023-05-06T09:46:09.527Z,18.35
2023-05-06T09:48:40.041Z,18.16
2023-05-06T09:51:15.657Z,18.95
2023-05-06T09:53:47.845Z,20.52
2023-05-06T09:56:19.091Z,21.60
2023-05-06T09:58:50.338Z,21.60
2023-05-06T10:01:35.950Z,19.72
2023-05-06T10:04:13.090Z,18.87
2023-05-06T10:06:46.332Z,18.38
2023-05-06T10:09:20.555Z,18.33
2023-05-06T10:11:54.430Z,18.12
2023-05-06T10:14:26.488Z,18.25
2023-05-06T10:16:59.518Z,18.54
2023-05-06T10:19:31.675Z,18.51
2023-05-06T10:22:13.795Z,18.31
2023-05-06T10:24:50.566Z,19.58
2023-05-06T10:27:25.253Z,20.73
2023-05-06T10:29:57.182Z,21.66
2023-05-06T10:32:34.562Z,23.18
2023-05-06T10:35:12.227Z,22.30
2023-05-06T10:37:45.827Z,20.07
2023-05-06T10:40:16.669Z,19.28
2023-05-06T10:42:46.649Z,19.29
2023-05-06T10:45:19.101Z,21.04
2023-05-06T10:48:17.020Z,21.03
2023-05-06T10:50:48.837Z,20.24
2023-05-06T10:53:19.145Z,20.46
2023-05-06T10:55:49.258Z,21.47
2023-05-06T10:58:22.045Z,22.48
2023-05-06T11:00:57.355Z,21.55
2023-05-06T11:03:30.480Z,22.14
2023-05-06T11:06:03.060Z,23.15
2023-05-06T11:08:33.586Z,22.01
2023-05-06T11:11:04.628Z,21.13
2023-05-06T11:13:38.531Z,20.69
2023-05-06T11:16:09.090Z,20.67
2023-05-06T11:18:48.914Z,20.16
2023-05-06T11:21:43.709Z,19.82
2023-05-06T11:24:17.439Z,21.12
2023-05-06T11:26:47.827Z,22.30
2023-05-06T11:29:19.935Z,22.06
2023-05-06T11:31:50.793Z,22.16
2023-05-06T11:34:27.955Z,20.83
2023-05-06T11:37:06.893Z,21.03
2023-05-06T11:39:41.182Z,20.50
2023-05-06T11:42:12.416Z,20.25
2023-05-06T11:44:43.316Z,20.16
2023-05-06T11:47:14.274Z,19.99
2023-05-06T11:49:47.708Z,20.32
2023-05-06T11:52:18.332Z,21.45
2023-05-06T11:54:50.211Z,21.61
2023-05-06T11:57:22.393Z,22.10
2023-05-06T11:59:58.439Z,21.97
2023-05-06T12:02:28.988Z,21.27
2023-05-06T12:05:02.556Z,20.37
2023-05-06T12:07:34.710Z,20.34
2023-05-06T12:10:06.647Z,20.37
2023-05-06T12:12:36.820Z,20.21
2023-05-06T12:15:08.252Z,19.72
2023-05-06T12:17:38.663Z,19.24
2023-05-06T12:20:14.775Z,20.06
2023-05-06T12:22:45.202Z,20.65
2023-05-06T12:25:17.729Z,21.27
2023-05-06T12:27:49.399Z,22.16
2023-05-06T12:30:20.405Z,22.94
2023-05-06T12:33:08.362Z,21.15
2023-05-06T12:35:42.813Z,21.41
2023-05-06T12:38:14.344Z,21.05
2023-05-06T12:40:46.003Z,20.44
2023-05-06T12:43:16.600Z,19.42
2023-05-06T12:45:47.904Z,19.57
2023-05-06T12:48:19.869Z,19.61
2023-05-06T12:50:53.685Z,19.38
2023-05-06T12:53:35.695Z,19.57
2023-05-06T12:56:06.511Z,19.69
2023-05-06T12:58:38.047Z,19.96
2023-05-06T13:01:09.629Z,20.03
2023-05-06T13:03:41.208Z,21.35
2023-05-06T13:06:18.063Z,22.79
2023-05-06T13:08:48.669Z,23.35
2023-05-06T13:11:18.721Z,23.33
2023-05-06T13:13:50.330Z,23.70
2023-05-06T13:16:22.695Z,22.63
2023-05-06T13:18:54.688Z,23.24
2023-05-06T13:21:27.714Z,24.15
2023-05-06T13:23:57.886Z,23.62
2023-05-06T13:26:30.370Z,24.11
2023-05-06T13:29:01.103Z,23.39
2023-05-06T13:31:31.895Z,22.76
2023-05-06T13:34:03.575Z,22.32
2023-05-06T13:36:37.116Z,21.94
2023-05-06T13:39:07.597Z,21.18
2023-05-06T13:41:39.730Z,20.92
2023-05-06T13:44:10.900Z,21.18
2023-05-06T13:46:46.419Z,20.83
2023-05-06T13:49:18.088Z,20.82
2023-05-06T13:51:52.688Z,20.95
2023-05-06T13:54:26.012Z,20.75
2023-05-06T13:56:59.149Z,20.50
2023-05-06T13:59:29.557Z,19.55
2023-05-06T14:02:05.562Z,19.88
2023-05-06T14:04:39.827Z,19.96
2023-05-06T14:07:19.042Z,19.96
2023-05-06T14:09:55.351Z,19.71
2023-05-06T14:12:27.129Z,19.75
2023-05-06T14:15:03.502Z,19.95
2023-05-06T14:17:35.034Z,20.23
2023-05-06T14:20:06.203Z,20.51
2023-05-06T14:22:42.949Z,20.87
2023-05-06T14:25:14.525Z,22.05
2023-05-06T14:27:45.971Z,21.44
2023-05-06T14:30:18.009Z,21.56
2023-05-06T14:32:50.259Z,21.19
2023-05-06T14:35:21.495Z,20.95
2023-05-06T14:37:55.116Z,21.26
2023-05-06T14:40:27.423Z,20.92
2023-05-06T14:42:58.214Z,20.15
2023-05-06T14:45:31.048Z,20.10
2023-05-06T14:48:03.220Z,20.76
2023-05-06T14:50:34.735Z,20.58
2023-05-06T14:53:11.138Z,20.61
2023-05-06T14:55:44.868Z,20.21
2023-05-06T14:58:20.738Z,20.20
2023-05-06T15:00:56.000Z,20.06
2023-05-06T15:03:29.187Z,19.86
2023-05-06T15:06:02.301Z,19.60
2023-05-06T15:08:39.515Z,19.58
2023-05-06T15:11:12.873Z,19.49
2023-05-06T15:13:46.091Z,19.34
2023-05-06T15:16:17.038Z,19.30
2023-05-06T15:18:48.485Z,19.73
2023-05-06T15:21:19.350Z,19.97
2023-05-06T15:23:52.921Z,20.50
2023-05-06T15:26:23.270Z,21.58
2023-05-06T15:28:54.634Z,21.94
2023-05-06T15:31:27.290Z,22.37
2023-05-06T15:34:00.806Z,21.98
2023-05-06T15:36:36.217Z,20.65
2023-05-06T15:39:11.269Z,19.97
2023-05-06T15:41:43.533Z,19.63
2023-05-06T15:44:20.787Z,19.31
2023-05-06T15:46:57.355Z,19.58
2023-05-06T15:52:01.656Z,19.88
2023-05-06T15:54:37.553Z,19.55
2023-05-06T15:57:08.423Z,19.50
2023-05-06T15:59:38.763Z,19.18
2023-05-06T16:04:43.629Z,18.60
2023-05-06T16:07:14.512Z,18.55
2023-05-06T16:09:48.530Z,18.39
2023-05-06T16:12:20.598Z,18.25
2023-05-06T16:14:51.562Z,18.08
2023-05-06T16:17:21.647Z,17.75
2023-05-06T16:19:51.861Z,17.73
2023-05-06T16:22:22.376Z,17.53
2023-05-06T16:24:55.330Z,17.41
2023-05-06T16:27:27.767Z,17.28
2023-05-06T16:29:58.558Z,17.28
2023-05-06T16:32:28.762Z,17.17
2023-05-06T16:34:59.753Z,16.90
2023-05-06T16:37:30.870Z,16.93
2023-05-06T16:40:03.787Z,16.72
2023-05-06T16:42:33.890Z,16.46
2023-05-06T16:45:05.944Z,16.37
2023-05-06T16:47:36.750Z,16.45
2023-05-06T16:50:15.280Z,16.39
2023-05-06T16:52:50.141Z,16.01
2023-05-06T16:55:24.476Z,15.93
2023-05-06T16:57:54.764Z,15.71
2023-05-06T17:00:25.303Z,15.99
2023-05-06T17:02:57.225Z,15.86
2023-05-06T17:05:36.741Z,15.87
2023-05-06T17:08:10.450Z,15.75
2023-05-06T17:10:43.785Z,15.60
2023-05-06T17:13:20.372Z,15.27
2023-05-06T17:15:51.232Z,15.33
2023-05-06T17:18:22.113Z,15.14
2023-05-06T17:20:56.756Z,15.11
2023-05-06T17:23:28.153Z,15.12
2023-05-06T17:26:03.821Z,15.04
2023-05-06T17:28:38.784Z,14.95
2023-05-06T17:31:09.680Z,14.96
2023-05-06T17:33:40.030Z,14.86
2023-05-06T17:36:10.575Z,14.75
2023-05-06T17:38:40.842Z,14.67
2023-05-06T17:41:14.089Z,14.69
2023-05-06T17:43:47.733Z,14.65
2023-05-06T17:46:19.708Z,14.63
2023-05-06T17:48:50.728Z,14.51
2023-05-06T17:51:22.171Z,14.27
2023-05-06T17:53:52.849Z,14.39
2023-05-06T17:56:25.753Z,14.34
2023-05-06T17:58:57.217Z,14.32
2023-05-06T18:01:30.520Z,14.18
2023-05-06T18:04:02.944Z,14.16
2023-05-06T18:06:33.989Z,14.11
2023-05-06T18:09:05.657Z,14.02
2023-05-06T18:11:41.101Z,13.90
2023-05-06T18:14:16.838Z,13.82
2023-05-06T18:16:50.066Z,13.62
2023-05-06T18:19:21.998Z,13.70
2023-05-06T18:21:54.471Z,13.51
2023-05-06T18:24:26.153Z,13.54
2023-05-06T18:27:02.159Z,13.64
2023-05-06T18:29:33.974Z,13.39
2023-05-06T18:32:06.967Z,13.26
2023-05-06T18:34:40.154Z,13.21
2023-05-06T18:37:11.807Z,13.38
2023-05-06T18:39:45.967Z,13.24
2023-05-06T18:42:21.813Z,13.24
2023-05-06T18:44:52.254Z,13.24
2023-05-06T18:47:26.904Z,13.12
2023-05-06T18:49:57.952Z,13.09
2023-05-06T18:52:28.651Z,13.17
2023-05-06T18:54:59.175Z,13.12
2023-05-06T18:57:32.014Z,13.08
2023-05-06T19:00:02.633Z,13.03
2023-05-06T19:02:35.536Z,13.03
2023-05-06T19:05:09.592Z,13.04
2023-05-06T19:07:40.161Z,12.91
2023-05-06T19:10:14.388Z,12.97
2023-05-06T19:12:47.679Z,13.01
2023-05-06T19:15:19.595Z,13.04
2023-05-06T19:17:50.522Z,13.03
2023-05-06T19:20:21.220Z,12.92
2023-05-06T19:22:52.955Z,12.95
2023-05-06T19:25:23.681Z,12.88
2023-05-06T19:27:57.827Z,12.93
2023-05-06T19:30:28.178Z,12.93
2023-05-06T19:33:00.858Z,12.87
2023-05-06T19:35:33.896Z,12.99
2023-05-06T19:38:04.839Z,12.93
2023-05-06T19:40:35.404Z,12.94
2023-05-06T19:43:08.833Z,12.92
2023-05-06T19:45:42.367Z,12.97
2023-05-06T19:48:13.154Z,12.93
2023-05-06T19:50:43.566Z,12.82
2023-05-06T19:53:13.415Z,12.85
2023-05-06T19:55:45.119Z,12.81
2023-05-06T19:58:19.461Z,12.83
2023-05-06T20:00:49.835Z,12.86
2023-05-06T20:03:20.101Z,12.89
2023-05-06T20:05:50.748Z,12.83
2023-05-06T20:08:20.742Z,12.88
2023-05-06T20:10:51.702Z,12.84
2023-05-06T20:13:24.971Z,12.81
2023-05-06T20:15:57.959Z,12.79
2023-05-06T20:18:28.627Z,12.72
2023-05-06T20:20:58.934Z,12.65
2023-05-06T20:23:30.971Z,12.59
2023-05-06T20:26:04.604Z,12.45
2023-05-06T20:28:39.990Z,12.27
2023-05-06T20:31:10.772Z,12.26
2023-05-06T20:33:42.307Z,12.21
2023-05-06T20:36:17.355Z,12.24
2023-05-06T20:38:50.544Z,12.14
2023-05-06T20:41:25.370Z,12.00
2023-05-06T20:43:59.326Z,11.89
2023-05-06T20:49:26.212Z,11.81
2023-05-06T20:51:59.394Z,11.79
2023-05-06T20:54:32.663Z,11.66
2023-05-06T20:57:04.794Z,11.66
2023-05-06T20:59:42.356Z,11.67
2023-05-06T21:02:18.428Z,11.56
2023-05-06T21:04:51.429Z,11.53
2023-05-06T21:07:23.311Z,11.53
2023-05-06T21:09:54.965Z,11.69
2023-05-06T21:12:25.823Z,11.62
2023-05-06T21:14:58.400Z,11.65
2023-05-06T21:17:28.842Z,11.65
2023-05-06T21:19:58.787Z,11.64
2023-05-06T21:22:30.417Z,11.71
2023-05-06T21:25:01.362Z,11.60
2023-05-06T21:27:31.429Z,11.61
2023-05-06T21:30:04.730Z,11.57
2023-05-06T21:32:35.313Z,11.54
2023-05-06T21:35:07.145Z,11.49
2023-05-06T21:37:41.448Z,11.53
2023-05-06T21:40:15.281Z,11.55
2023-05-06T21:42:48.362Z,11.54
2023-05-06T21:45:22.017Z,11.48
2023-05-06T21:47:52.291Z,11.47
2023-05-06T21:50:22.656Z,11.40
2023-05-06T21:52:53.335Z,11.44
2023-05-06T21:55:28.830Z,11.43
2023-05-06T21:57:59.418Z,11.49
2023-05-06T22:00:39.838Z,11.39
2023-05-06T22:03:12.359Z,11.40
2023-05-06T22:05:49.674Z,11.44
2023-05-06T22:08:37.639Z,11.43
2023-05-06T22:23:08.096Z,11.57
2023-05-06T22:25:55.006Z,11.37
2023-05-06T22:29:05.461Z,11.39
2023-05-06T22:35:54.321Z,11.33
2023-05-06T22:38:52.652Z,11.30
2023-05-06T22:45:41.084Z,11.32
2023-05-06T22:48:16.166Z,11.20
2023-05-06T22:51:03.323Z,11.21
2023-05-06T22:53:50.774Z,11.20
2023-05-06T22:56:23.329Z,11.21
2023-05-06T22:58:58.722Z,11.23
2023-05-06T23:01:34.308Z,11.18
2023-05-06T23:04:17.885Z,11.23
2023-05-06T23:06:53.228Z,11.21
2023-05-06T23:09:24.528Z,11.18
2023-05-06T23:11:54.919Z,11.15
2023-05-06T23:14:24.972Z,11.18
2023-05-06T23:16:56.139Z,11.17
2023-05-06T23:19:26.564Z,11.20
2023-05-06T23:22:01.544Z,11.14
2023-05-06T23:24:31.864Z,11.12
2023-05-06T23:27:01.991Z,11.10
2023-05-06T23:29:32.773Z,11.13
2023-05-06T23:32:03.125Z,11.22
2023-05-06T23:34:36.256Z,11.12
2023-05-06T23:37:10.265Z,11.22
2023-05-06T23:39:40.555Z,11.12
2023-05-06T23:42:11.668Z,11.21
2023-05-06T23:44:42.386Z,11.25
2023-05-06T23:47:12.659Z,11.11
2023-05-06T23:49:42.839Z,11.17
2023-05-06T23:52:15.821Z,11.11
2023-05-06T23:54:45.891Z,11.03
2023-05-06T23:57:16.065Z,10.93
2023-05-06T23:59:47.355Z,11.07
